Time;durP1;ratioP1;P1;durP2;ratioP2;P2;SDS_P1;SDS_P2;PMS_P1;PMS_P2;Temp;Humidity;BMP_temperature;BMP_pressure;BME280_temperature;BME280_humidity;BME280_pressure;Samples;Min_cycle;Max_cycle;Signal;HPM_P1;HPM_P2
2021/07/07 00:01:56;;;;;;;;;;;;;;;22.97;73.92;100617.00;5037778;28;1689;-59
2021/07/07 00:04:22;;;;;;;;;;;;;;;22.96;73.89;100636.91;5033277;28;1863;-64
2021/07/07 00:06:50;;;;;;;;;;;;;;;22.95;73.77;100619.00;5032131;28;1399;-58
2021/07/07 00:09:17;;;;;;;;;;;;;;;22.98;73.74;100618.69;5033609;28;1792;-60
2021/07/07 00:11:44;;;;;;;;;;;;;;;22.98;73.24;100626.78;5033092;28;1488;-65
2021/07/07 00:14:10;;;;;;;;;;;;;;;22.97;73.62;100635.03;5033142;28;1708;-64
2021/07/07 00:16:37;;;;;;;;;;;;;;;22.77;73.87;100629.09;5040501;28;1980;-59
2021/07/07 00:19:04;;;;;;;;;;;;;;;22.71;73.83;100632.44;5033157;28;1626;-64
2021/07/07 00:21:30;;;;;;;;;;;;;;;22.56;73.91;100618.72;5033655;28;1343;-65
2021/07/07 00:23:58;;;;;;;;;;;;;;;22.60;73.60;100620.09;5037966;28;1484;-64
2021/07/07 00:26:25;;;;;;;;;;;;;;;22.72;73.73;100626.03;5039716;28;1665;-64
2021/07/07 00:28:51;;;;;;;;;;;;;;;22.64;73.43;100633.09;5036980;28;1642;-64
2021/07/07 00:31:18;;;;;;;;;;;;;;;22.53;73.65;100609.13;5049420;28;1569;-58
2021/07/07 00:33:45;;;;;;;;;;;;;;;22.47;73.70;100636.72;5044103;28;1526;-58
2021/07/07 00:36:11;;;;;;;;;;;;;;;22.47;73.51;100634.03;5046800;28;1910;-65
2021/07/07 00:38:38;;;;;;;;;;;;;;;22.45;73.48;100638.72;5035278;28;1625;-58
2021/07/07 00:41:06;;;;;;;;;;;;;;;22.53;73.10;100630.69;5039473;28;1476;-64
2021/07/07 00:43:32;;;;;;;;;;;;;;;22.58;73.19;100639.13;5048199;28;1505;-65
2021/07/07 00:45:59;;;;;;;;;;;;;;;22.63;72.71;100630.56;5045680;28;1614;-65
2021/07/07 00:48:26;;;;;;;;;;;;;;;22.70;72.38;100642.38;5037124;28;1594;-64
2021/07/07 00:50:52;;;;;;;;;;;;;;;22.70;72.51;100644.22;5048527;28;1399;-64
2021/07/07 00:53:19;;;;;;;;;;;;;;;22.73;72.26;100643.91;5037030;28;1861;-58
2021/07/07 00:55:46;;;;;;;;;;;;;;;22.79;72.22;100635.16;5038282;28;1907;-58
2021/07/07 00:58:14;;;;;;;;;;;;;;;22.83;72.29;100647.31;5045882;28;1480;-65
2021/07/07 01:00:41;;;;;;;;;;;;;;;22.87;71.99;100643.28;5037120;28;1610;-64
2021/07/07 01:03:08;;;;;;;;;;;;;;;22.78;71.88;100628.06;5035189;28;1543;-64
2021/07/07 01:05:34;;;;;;;;;;;;;;;22.77;71.90;100637.16;5046854;28;1760;-58
2021/07/07 01:08:01;;;;;;;;;;;;;;;22.61;72.09;100637.97;5054123;28;1496;-58
2021/07/07 01:10:28;;;;;;;;;;;;;;;22.47;72.48;100635.88;5046268;28;1561;-65
2021/07/07 01:12:54;;;;;;;;;;;;;;;22.35;72.85;100640.72;5040698;28;1840;-65
2021/07/07 01:15:22;;;;;;;;;;;;;;;22.37;72.27;100638.69;5047914;28;1752;-57
2021/07/07 01:17:49;;;;;;;;;;;;;;;22.50;72.15;100644.50;5036464;28;1961;-58
2021/07/07 01:20:18;;;;;;;;;;;;;;;22.55;71.95;100635.91;5036289;28;1522;-65
2021/07/07 01:22:45;;;;;;;;;;;;;;;22.59;71.77;100651.59;5035767;28;1491;-58
2021/07/07 01:25:14;;;;;;;;;;;;;;;22.66;71.62;100648.25;5036257;28;1059;-58
2021/07/07 01:27:41;;;;;;;;;;;;;;;22.56;71.84;100641.16;5035999;28;1776;-64
2021/07/07 01:30:09;;;;;;;;;;;;;;;22.60;71.67;100653.28;5043872;28;1574;-64
2021/07/07 01:32:36;;;;;;;;;;;;;;;22.68;71.49;100657.00;5038518;28;1570;-59
2021/07/07 01:35:03;;;;;;;;;;;;;;;22.72;71.52;100653.84;5039873;28;1613;-64
2021/07/07 01:37:29;;;;;;;;;;;;;;;22.71;71.33;100648.63;5052017;28;1907;-58
2021/07/07 01:39:57;;;;;;;;;;;;;;;22.71;71.02;100643.22;5035751;28;1653;-65
2021/07/07 01:42:24;;;;;;;;;;;;;;;22.61;71.58;100649.56;5036315;28;1792;-59
2021/07/07 01:44:50;;;;;;;;;;;;;;;22.61;71.39;100649.56;5044603;28;1531;-65
2021/07/07 01:47:17;;;;;;;;;;;;;;;22.66;71.41;100654.50;5037569;28;1577;-64
2021/07/07 01:49:44;;;;;;;;;;;;;;;22.62;71.38;100647.72;5035669;28;1597;-64
2021/07/07 01:52:10;;;;;;;;;;;;;;;22.70;71.06;100645.09;5036077;28;1580;-59
2021/07/07 01:54:37;;;;;;;;;;;;;;;22.67;70.98;100644.56;5035520;28;1807;-65
2021/07/07 01:57:05;;;;;;;;;;;;;;;22.61;70.97;100652.28;5035389;28;1967;-58
2021/07/07 01:59:31;;;;;;;;;;;;;;;22.57;71.16;100650.06;5042269;28;1589;-59
2021/07/07 02:01:58;;;;;;;;;;;;;;;22.59;70.86;100645.38;5040389;28;1730;-64
2021/07/07 02:04:25;;;;;;;;;;;;;;;22.50;71.21;100636.41;5034803;28;1634;-64
2021/07/07 02:06:51;;;;;;;;;;;;;;;22.49;71.08;100648.19;5043881;28;1315;-65
2021/07/07 02:09:19;;;;;;;;;;;;;;;22.49;70.80;100655.44;5041815;28;1534;-59
2021/07/07 02:11:46;;;;;;;;;;;;;;;22.39;70.85;100648.31;5038662;28;1534;-58
2021/07/07 02:14:14;;;;;;;;;;;;;;;22.38;71.18;100648.44;5038816;28;1648;-64
2021/07/07 02:16:40;;;;;;;;;;;;;;;22.29;71.45;100649.44;5044697;28;1980;-59
2021/07/07 02:19:07;;;;;;;;;;;;;;;22.23;71.57;100653.56;5042376;28;1648;-65
2021/07/07 02:21:34;;;;;;;;;;;;;;;22.24;71.45;100668.75;5037321;28;1359;-58
2021/07/07 02:24:00;;;;;;;;;;;;;;;22.21;71.27;100669.88;5040212;28;1795;-58
2021/07/07 02:26:27;;;;;;;;;;;;;;;22.22;71.17;100673.41;5044259;28;1661;-59
2021/07/07 02:28:54;;;;;;;;;;;;;;;22.21;71.20;100659.13;5045438;28;1645;-65
2021/07/07 02:31:22;;;;;;;;;;;;;;;22.31;71.21;100669.81;5046205;28;1582;-64
2021/07/07 02:33:48;;;;;;;;;;;;;;;22.38;70.79;100654.72;5044467;28;1535;-59
2021/07/07 02:36:15;;;;;;;;;;;;;;;22.48;70.64;100649.16;5042957;28;2005;-64
2021/07/07 02:38:42;;;;;;;;;;;;;;;22.53;70.67;100652.25;5046371;28;1740;-58
2021/07/07 02:41:08;;;;;;;;;;;;;;;22.59;70.39;100666.94;5037110;28;1645;-58
2021/07/07 02:43:35;;;;;;;;;;;;;;;22.46;70.54;100653.88;5043600;28;1582;-65
2021/07/07 02:46:02;;;;;;;;;;;;;;;22.31;71.00;100636.66;5035949;28;1566;-58
2021/07/07 02:48:30;;;;;;;;;;;;;;;22.26;71.16;100682.91;5044435;28;1590;-58
2021/07/07 02:50:56;;;;;;;;;;;;;;;;;;5034899;28;1331;-59
2021/07/07 02:53:23;;;;;;;;;;;;;;;22.47;70.46;100666.34;5036665;28;1753;-58
2021/07/07 02:55:50;;;;;;;;;;;;;;;22.51;70.32;100664.19;5045383;28;1430;-59
2021/07/07 02:58:16;;;;;;;;;;;;;;;22.44;70.29;100659.44;5043268;28;1977;-64
2021/07/07 03:00:44;;;;;;;;;;;;;;;22.35;70.50;100667.66;5034369;28;1873;-59
2021/07/07 03:03:12;;;;;;;;;;;;;;;22.24;71.18;100676.84;5034861;28;1534;-58
2021/07/07 03:05:41;;;;;;;;;;;;;;;22.18;70.80;100664.84;5038534;28;1749;-58
2021/07/07 03:08:08;;;;;;;;;;;;;;;22.26;70.69;100647.03;5052519;28;1862;-64
2021/07/07 03:10:34;;;;;;;;;;;;;;;22.35;70.11;100675.72;5043105;28;1387;-65
2021/07/07 03:13:01;;;;;;;;;;;;;;;22.45;70.16;100671.06;5045173;28;1649;-58
2021/07/07 03:15:28;;;;;;;;;;;;;;;22.51;70.10;100674.97;5046076;28;1022;-64
2021/07/07 03:17:55;;;;;;;;;;;;;;;22.60;69.82;100691.03;5034041;28;1902;-64
2021/07/07 03:20:21;;;;;;;;;;;;;;;22.59;69.95;100688.47;5037696;28;1666;-59
2021/07/07 03:22:49;;;;;;;;;;;;;;;22.48;70.28;100686.06;5052194;28;1577;-64
2021/07/07 03:25:16;;;;;;;;;;;;;;;22.43;70.30;100683.84;5035163;28;935;-59
2021/07/07 03:27:42;;;;;;;;;;;;;;;22.37;70.52;100681.81;5034326;28;1815;-65
2021/07/07 03:30:10;;;;;;;;;;;;;;;22.47;70.21;100692.47;5032730;28;1815;-64
2021/07/07 03:32:36;;;;;;;;;;;;;;;22.59;69.87;100700.09;5033654;28;1787;-64
2021/07/07 03:35:04;;;;;;;;;;;;;;;22.64;69.77;100695.09;5033596;28;1597;-64
2021/07/07 03:37:30;;;;;;;;;;;;;;;22.75;69.68;100710.13;5035092;28;1910;-58
2021/07/07 03:39:58;;;;;;;;;;;;;;;22.73;69.89;100700.50;5032852;28;1756;-58
2021/07/07 03:42:25;;;;;;;;;;;;;;;22.74;70.10;100703.06;5033641;28;1744;-65
2021/07/07 03:44:51;;;;;;;;;;;;;;;22.78;69.99;100711.63;5029141;28;1677;-64
2021/07/07 03:47:18;;;;;;;;;;;;;;;22.83;69.86;100712.84;5040624;28;1572;-65
2021/07/07 03:49:45;;;;;;;;;;;;;;;22.88;69.84;100715.06;5034336;28;1487;-65
2021/07/07 03:52:11;;;;;;;;;;;;;;;22.89;70.00;100711.34;5034089;28;1172;-65
2021/07/07 03:54:38;;;;;;;;;;;;;;;22.95;69.95;100718.78;5033262;28;1697;-64
2021/07/07 03:57:06;;;;;;;;;;;;;;;22.95;69.88;100710.69;5035180;28;1977;-59
2021/07/07 03:59:32;;;;;;;;;;;;;;;22.98;70.08;100721.19;5032810;28;1476;-65
2021/07/07 04:01:59;;;;;;;;;;;;;;;22.98;69.89;100715.78;5032252;28;1539;-59
2021/07/07 04:04:25;;;;;;;;;;;;;;;23.01;70.06;100720.00;5032862;28;1570;-64
2021/07/07 04:06:57;;;;;;;;;;;;;;;23.02;70.25;100737.91;5034680;28;1048;-59
2021/07/07 04:09:23;;;;;;;;;;;;;;;22.85;70.55;100723.47;5032293;28;1495;-65
2021/07/07 04:11:50;;;;;;;;;;;;;;;22.77;70.63;100729.66;5033397;28;1625;-59
2021/07/07 04:14:23;;;;;;;;;;;;;;;22.68;71.40;100730.66;5037673;28;1625;-65
2021/07/07 04:16:49;;;;;;;;;;;;;;;22.63;71.56;100736.50;5038597;28;1980;-65
2021/07/07 04:19:16;;;;;;;;;;;;;;;22.57;72.22;100718.28;5033107;28;1472;-65
2021/07/07 04:21:42;;;;;;;;;;;;;;;22.71;71.63;100734.88;5034485;28;1107;-60
2021/07/07 04:24:09;;;;;;;;;;;;;;;22.92;71.24;100726.34;5039203;28;1713;-60
2021/07/07 04:26:36;;;;;;;;;;;;;;;22.89;71.83;100738.31;5037676;28;1622;-59
2021/07/07 04:29:02;;;;;;;;;;;;;;;22.88;71.58;100731.25;5033203;28;1618;-65
2021/07/07 04:31:30;;;;;;;;;;;;;;;22.92;71.53;100743.41;5032652;28;1866;-65
2021/07/07 04:33:57;;;;;;;;;;;;;;;22.85;71.67;100747.75;5033392;28;1639;-59
2021/07/07 04:36:24;;;;;;;;;;;;;;;22.95;71.72;100751.16;5034598;28;1004;-65
2021/07/07 04:38:50;;;;;;;;;;;;;;;23.04;71.59;100741.28;5032484;28;1902;-58
2021/07/07 04:41:17;;;;;;;;;;;;;;;23.15;71.09;100745.53;5035517;28;1483;-65
2021/07/07 04:43:43;;;;;;;;;;;;;;;23.26;70.85;100747.94;5044207;28;1618;-59
2021/07/07 04:46:10;;;;;;;;;;;;;;;23.45;70.97;100754.06;5043413;28;1676;-65
2021/07/07 04:48:38;;;;;;;;;;;;;;;23.46;70.39;100750.31;5042082;28;1988;-59
2021/07/07 04:51:05;;;;;;;;;;;;;;;23.45;70.43;100759.44;5034120;28;870;-65
2021/07/07 04:53:32;;;;;;;;;;;;;;;23.56;70.44;100767.25;5030895;28;1963;-59
2021/07/07 04:55:58;;;;;;;;;;;;;;;23.56;70.30;100772.66;5040942;28;1527;-59
2021/07/07 04:58:25;;;;;;;;;;;;;;;23.55;69.96;100769.06;5031448;28;1906;-59
2021/07/07 05:00:52;;;;;;;;;;;;;;;23.70;70.66;100777.38;5041650;28;1499;-65
2021/07/07 05:03:18;;;;;;;;;;;;;;;23.77;70.28;100764.06;5044882;28;1586;-65
2021/07/07 05:05:46;;;;;;;;;;;;;;;23.92;71.06;100777.78;5032351;28;1890;-58
2021/07/07 05:08:13;;;;;;;;;;;;;;;23.93;70.05;100774.06;5019966;28;1522;-59
2021/07/07 05:10:40;;;;;;;;;;;;;;;23.92;70.51;100758.88;5040902;28;1580;-59
2021/07/07 05:13:06;;;;;;;;;;;;;;;23.87;71.11;100785.53;5032406;28;1433;-59
2021/07/07 05:15:33;;;;;;;;;;;;;;;23.98;70.86;100769.00;5035457;28;982;-58
2021/07/07 05:18:00;;;;;;;;;;;;;;;24.02;70.44;100778.47;5036395;28;1906;-64
2021/07/07 05:20:27;;;;;;;;;;;;;;;24.03;70.88;100780.13;5029023;28;1514;-64
2021/07/07 05:22:55;;;;;;;;;;;;;;;23.98;70.96;100790.63;5035986;28;1471;-64
2021/07/07 05:25:21;;;;;;;;;;;;;;;23.85;71.85;100788.41;5033443;28;1154;-58
2021/07/07 05:27:48;;;;;;;;;;;;;;;23.66;71.46;100767.94;5033348;28;1662;-64
2021/07/07 05:30:16;;;;;;;;;;;;;;;23.58;72.20;100776.03;5042344;28;1629;-64
2021/07/07 05:32:43;;;;;;;;;;;;;;;23.55;72.10;100787.13;5037567;28;1563;-58
2021/07/07 05:35:10;;;;;;;;;;;;;;;23.67;72.39;100790.38;5032932;28;1785;-58
2021/07/07 05:37:37;;;;;;;;;;;;;;;23.74;71.59;100786.84;5030913;28;1981;-58
2021/07/07 05:40:05;;;;;;;;;;;;;;;23.82;71.24;100784.19;5039628;28;1531;-67
2021/07/07 05:42:32;;;;;;;;;;;;;;;23.88;71.00;100800.75;5035359;28;1716;-58
2021/07/07 05:44:59;;;;;;;;;;;;;;;23.93;72.71;100784.84;5032751;28;1514;-58
2021/07/07 05:47:26;;;;;;;;;;;;;;;23.94;73.36;100786.56;5044382;28;1590;-58
2021/07/07 05:49:55;;;;;;;;;;;;;;;23.84;73.77;100781.31;5038186;28;1644;-64
2021/07/07 05:52:22;;;;;;;;;;;;;;;23.85;74.31;100798.38;5036994;28;1071;-64
2021/07/07 05:54:49;;;;;;;;;;;;;;;23.85;74.26;100801.06;5035828;28;1716;-58
2021/07/07 05:57:17;;;;;;;;;;;;;;;23.88;74.48;100814.25;5032115;28;1906;-64
2021/07/07 05:59:43;;;;;;;;;;;;;;;23.88;74.56;100803.44;5044514;28;1581;-65
2021/07/07 06:02:10;;;;;;;;;;;;;;;23.92;73.62;100808.34;5039684;28;1534;-58
2021/07/07 06:04:37;;;;;;;;;;;;;;;23.96;73.60;100803.44;5035166;28;1503;-58
2021/07/07 06:07:04;;;;;;;;;;;;;;;24.00;73.69;100802.09;5036753;28;1079;-58
2021/07/07 06:09:31;;;;;;;;;;;;;;;24.09;74.04;100800.22;5044487;28;1561;-58
2021/07/07 06:11:57;;;;;;;;;;;;;;;24.04;73.51;100799.91;5037063;28;1578;-64
2021/07/07 06:14:25;;;;;;;;;;;;;;;24.17;73.52;100817.31;5040901;28;1577;-58
2021/07/07 06:16:52;;;;;;;;;;;;;;;24.10;73.58;100804.63;5040553;28;1657;-58
2021/07/07 06:19:19;;;;;;;;;;;;;;;24.19;73.56;100799.06;5037742;28;1910;-65
2021/07/07 06:21:45;;;;;;;;;;;;;;;24.14;73.74;100787.91;5045338;28;979;-58
2021/07/07 06:24:13;;;;;;;;;;;;;;;24.05;73.56;100805.13;5035397;28;1530;-64
2021/07/07 06:26:40;;;;;;;;;;;;;;;24.11;73.52;100807.16;5036137;28;1540;-58
2021/07/07 06:29:07;;;;;;;;;;;;;;;24.20;73.64;100806.16;5039556;28;1625;-58
2021/07/07 06:31:35;;;;;;;;;;;;;;;24.24;73.21;100805.81;5036499;28;1566;-65
2021/07/07 06:34:01;;;;;;;;;;;;;;;24.35;72.94;100800.06;5035341;28;1503;-64
2021/07/07 06:36:28;;;;;;;;;;;;;;;24.24;72.65;100797.72;5043261;28;1078;-64
2021/07/07 06:38:54;;;;;;;;;;;;;;;24.22;72.91;100796.00;5048665;28;1898;-64
2021/07/07 06:41:21;;;;;;;;;;;;;;;24.20;73.40;100806.16;5041580;28;1578;-58
2021/07/07 06:43:47;;;;;;;;;;;;;;;24.24;72.98;100797.72;5027715;28;1477;-64
2021/07/07 06:46:14;;;;;;;;;;;;;;;24.34;72.29;100798.38;5043440;28;1598;-64
2021/07/07 06:48:42;;;;;;;;;;;;;;;24.36;72.72;100804.47;5034462;28;1582;-64
2021/07/07 06:51:09;;;;;;;;;;;;;;;24.29;73.04;100807.00;5035747;28;1008;-64
2021/07/07 06:53:35;;;;;;;;;;;;;;;24.20;72.82;100816.94;5034428;28;1689;-58
2021/07/07 06:56:02;;;;;;;;;;;;;;;24.22;73.07;100798.72;5036945;28;1578;-64
2021/07/07 06:58:29;;;;;;;;;;;;;;;24.30;72.65;100802.44;5040319;28;1956;-58
2021/07/07 07:00:55;;;;;;;;;;;;;;;24.30;72.89;100813.25;5030815;28;1538;-64
2021/07/07 07:03:22;;;;;;;;;;;;;;;24.28;73.06;100813.41;5034671;28;1421;-58
2021/07/07 07:05:50;;;;;;;;;;;;;;;23.91;70.89;100827.41;5046151;28;1119;-64
2021/07/07 07:08:18;;;;;;;;;;;;;;;23.51;71.37;100820.88;5035725;28;1677;-64
2021/07/07 07:10:45;;;;;;;;;;;;;;;23.28;71.52;100818.78;5041634;28;1573;-58
2021/07/07 07:13:11;;;;;;;;;;;;;;;23.10;71.44;100812.59;5034425;28;1621;-64
2021/07/07 07:15:38;;;;;;;;;;;;;;;23.09;71.03;100808.22;5035197;28;1032;-64
2021/07/07 07:18:05;;;;;;;;;;;;;;;23.05;71.97;100821.19;5034326;28;1910;-64
2021/07/07 07:20:32;;;;;;;;;;;;;;;23.11;72.23;100809.75;5045338;28;1709;-63
2021/07/07 07:23:00;;;;;;;;;;;;;;;23.14;72.30;100827.44;5035404;28;1780;-64
2021/07/07 07:25:27;;;;;;;;;;;;;;;23.19;73.55;100834.06;5045204;28;990;-65
2021/07/07 07:27:54;;;;;;;;;;;;;;;23.39;74.69;100825.72;5045344;28;1530;-64
2021/07/07 07:30:20;;;;;;;;;;;;;;;23.52;74.68;100830.66;5034907;28;1491;-64
2021/07/07 07:32:48;;;;;;;;;;;;;;;23.56;74.08;100823.94;5029696;28;1635;-64
2021/07/07 07:35:15;;;;;;;;;;;;;;;23.63;73.63;100823.13;5034002;28;1570;-65
2021/07/07 07:37:47;;;;;;;;;;;;;;;23.26;71.84;100830.72;5029548;28;2054;-64
2021/07/07 07:40:21;;;;;;;;;;;;;;;22.78;70.35;100833.81;5033824;28;1514;-65
2021/07/07 07:42:47;;;;;;;;;;;;;;;22.38;69.67;100843.31;5043919;28;1389;-60
2021/07/07 07:45:14;;;;;;;;;;;;;;;22.32;69.49;100843.06;5034445;28;1708;-65
2021/07/07 07:47:41;;;;;;;;;;;;;;;22.20;68.52;100840.59;5039740;28;1609;-59
2021/07/07 07:50:11;;;;;;;;;;;;;;;22.07;67.50;100828.53;5039795;28;1640;-59
2021/07/07 07:52:38;;;;;;;;;;;;;;;21.91;66.95;100837.28;5034766;28;1442;-65
2021/07/07 07:55:05;;;;;;;;;;;;;;;21.91;66.85;100831.91;5034135;28;1557;-57
2021/07/07 07:57:36;;;;;;;;;;;;;;;22.13;67.87;100839.50;5031146;28;1547;-63
2021/07/07 08:00:03;;;;;;;;;;;;;;;22.38;69.15;100842.44;5028008;28;1973;-66
2021/07/07 08:02:30;;;;;;;;;;;;;;;22.55;69.87;100849.66;5028371;28;1661;-70
2021/07/07 08:04:56;;;;;;;;;;;;;;;22.57;69.36;100839.56;5031424;28;1570;-59
2021/07/07 08:07:26;;;;;;;;;;;;;;;22.50;68.50;100846.59;5033786;28;1451;-58
2021/07/07 08:09:53;;;;;;;;;;;;;;;22.28;68.96;100847.06;5026339;28;1595;-64
2021/07/07 08:12:20;;;;;;;;;;;;;;;22.35;68.53;100840.06;5033692;28;1025;-64
2021/07/07 08:14:50;;;;;;;;;;;;;;;22.42;68.22;100849.22;5031349;28;1721;-59
2021/07/07 08:17:17;;;;;;;;;;;;;;;22.53;68.42;100840.88;5033590;28;1586;-64
2021/07/07 08:19:43;;;;;;;;;;;;;;;22.60;68.49;100847.34;5035653;28;1981;-64
2021/07/07 08:22:10;;;;;;;;;;;;;;;22.67;68.43;100830.53;5036687;28;1577;-59
2021/07/07 08:24:37;;;;;;;;;;;;;;;22.60;68.54;100844.66;5029346;28;1502;-64
2021/07/07 08:27:04;;;;;;;;;;;;;;;22.59;68.31;100851.03;5032193;28;1570;-58
2021/07/07 08:29:30;;;;;;;;;;;;;;;22.64;68.48;100837.06;5035834;28;1578;-65
2021/07/07 08:31:58;;;;;;;;;;;;;;;22.58;68.25;100835.88;5041622;28;1448;-59
2021/07/07 08:34:25;;;;;;;;;;;;;;;22.61;68.07;100846.34;5033520;28;1448;-59
2021/07/07 08:36:51;;;;;;;;;;;;;;;22.51;68.44;100837.50;5023436;28;1654;-59
2021/07/07 08:39:18;;;;;;;;;;;;;;;22.55;68.49;100836.19;5027098;28;2000;-65
2021/07/07 08:41:44;;;;;;;;;;;;;;;22.67;68.21;100838.63;5030370;28;1556;-59
2021/07/07 08:44:11;;;;;;;;;;;;;;;22.62;68.12;100831.00;5032217;28;1582;-61
2021/07/07 08:46:38;;;;;;;;;;;;;;;22.56;67.91;100845.97;5033526;28;1996;-58
2021/07/07 08:49:06;;;;;;;;;;;;;;;22.54;67.66;100842.59;5036010;28;1563;-57
2021/07/07 08:51:33;;;;;;;;;;;;;;;22.54;67.35;100833.63;5029606;28;1467;-67
2021/07/07 08:54:01;;;;;;;;;;;;;;;22.58;67.27;100838.56;5041646;28;1509;-66
2021/07/07 08:56:27;;;;;;;;;;;;;;;22.55;67.36;100822.72;5041306;28;1585;-65
2021/07/07 08:58:54;;;;;;;;;;;;;;;22.50;67.61;100854.69;5038913;28;1981;-66
2021/07/07 09:01:20;;;;;;;;;;;;;;;22.49;67.51;100844.06;5047299;28;1618;-59
2021/07/07 09:03:47;;;;;;;;;;;;;;;22.49;67.15;100863.75;5045290;28;1526;-66
2021/07/07 09:06:16;;;;;;;;;;;;;;;22.47;67.00;100849.59;5037889;28;1056;-59
2021/07/07 09:08:46;;;;;;;;;;;;;;;22.46;66.84;100847.06;5036536;28;1724;-66
2021/07/07 09:11:16;;;;;;;;;;;;;;;22.47;66.67;100851.47;5038704;28;1516;-59
2021/07/07 09:13:43;;;;;;;;;;;;;;;22.48;66.78;100862.06;5045186;28;1570;-66
2021/07/07 09:16:10;;;;;;;;;;;;;;;22.45;66.61;100854.31;5036715;28;1582;-59
2021/07/07 09:18:37;;;;;;;;;;;;;;;22.47;66.39;100865.78;5032528;28;1981;-59
2021/07/07 09:21:04;;;;;;;;;;;;;;;22.41;66.73;100847.53;5037051;28;1464;-58
2021/07/07 09:23:33;;;;;;;;;;;;;;;22.41;66.69;100848.38;5033518;28;1717;-59
2021/07/07 09:26:00;;;;;;;;;;;;;;;22.48;66.63;100853.13;5033913;28;1500;-59
2021/07/07 09:28:27;;;;;;;;;;;;;;;22.48;66.83;100853.13;5035297;28;1705;-59
2021/07/07 09:30:55;;;;;;;;;;;;;;;22.51;66.85;100856.38;5035125;28;1543;-59
2021/07/07 09:33:22;;;;;;;;;;;;;;;22.53;66.54;100848.97;5036661;28;1496;-59
2021/07/07 09:35:49;;;;;;;;;;;;;;;22.57;66.38;100855.75;5036911;28;992;-66
2021/07/07 09:38:17;;;;;;;;;;;;;;;22.55;66.83;100860.44;5027935;28;1532;-59
2021/07/07 09:40:46;;;;;;;;;;;;;;;22.54;66.45;100858.75;5038376;28;1647;-59
2021/07/07 09:43:13;;;;;;;;;;;;;;;22.48;66.50;100856.66;5035261;28;1473;-57
2021/07/07 09:45:44;;;;;;;;;;;;;;;22.52;66.33;100859.91;5047436;28;1290;-59
2021/07/07 09:48:14;;;;;;;;;;;;;;;22.45;66.40;100857.00;5040049;28;1422;-66
2021/07/07 09:50:42;;;;;;;;;;;;;;;22.51;66.15;100859.06;5046630;28;1448;-66
2021/07/07 09:53:09;;;;;;;;;;;;;;;22.47;66.52;100859.53;5021988;28;1521;-66
2021/07/07 09:55:35;;;;;;;;;;;;;;;22.63;66.44;100868.59;5036342;28;1621;-67
2021/07/07 09:58:04;;;;;;;;;;;;;;;22.81;66.11;100855.06;5037911;28;1582;-66
2021/07/07 10:00:37;;;;;;;;;;;;;;;23.05;66.22;100856.25;5034397;28;1914;-66
2021/07/07 10:03:04;;;;;;;;;;;;;;;23.21;65.42;100852.78;5031323;28;1717;-60
2021/07/07 10:05:38;;;;;;;;;;;;;;;23.32;66.34;100855.22;5035708;28;1693;-60
2021/07/07 10:08:05;;;;;;;;;;;;;;;23.41;65.94;100858.78;5037098;28;1713;-67
2021/07/07 10:10:32;;;;;;;;;;;;;;;23.46;66.28;100853.75;5044572;28;1670;-66
2021/07/07 10:12:59;;;;;;;;;;;;;;;23.52;66.51;100857.66;5036325;28;1674;-59
2021/07/07 10:15:27;;;;;;;;;;;;;;;23.59;66.24;100855.97;5036011;28;1905;-66
2021/07/07 10:17:54;;;;;;;;;;;;;;;23.70;65.66;100858.38;5035161;28;1709;-61
2021/07/07 10:20:21;;;;;;;;;;;;;;;23.71;66.26;100864.63;5037715;28;1910;-60
2021/07/07 10:22:48;;;;;;;;;;;;;;;23.74;66.64;100862.44;5049485;28;1508;-61
2021/07/07 10:25:16;;;;;;;;;;;;;;;23.77;66.17;100859.44;5035443;28;1092;-70
2021/07/07 10:27:43;;;;;;;;;;;;;;;23.76;66.82;100849.63;5030182;28;1733;-61
2021/07/07 10:30:10;;;;;;;;;;;;;;;23.82;66.91;100856.25;5036743;28;1807;-67
2021/07/07 10:32:38;;;;;;;;;;;;;;;23.80;67.14;100845.63;5047894;28;1732;-66
2021/07/07 10:35:06;;;;;;;;;;;;;;;23.80;67.52;100853.72;5038457;28;1543;-71
2021/07/07 10:37:33;;;;;;;;;;;;;;;23.84;66.91;100840.72;5033720;28;1030;-66
2021/07/07 10:40:14;;;;;;;;;;;;;;;23.87;67.11;100853.88;5041791;28;1975;-57
2021/07/07 10:42:44;;;;;;;;;;;;;;;23.89;67.14;100845.63;5035484;28;1917;-65
2021/07/07 10:45:29;;;;;;;;;;;;;;;23.87;67.20;100845.78;5034960;28;1654;-65
2021/07/07 10:48:17;;;;;;;;;;;;;;;23.87;67.83;100843.09;5034322;28;1709;-65
2021/07/07 10:50:44;;;;;;;;;;;;;;;23.92;67.66;100848.00;5029082;28;2209;-58
2021/07/07 10:53:22;;;;;;;;;;;;;;;23.91;67.19;100857.09;5018533;28;1714;-65
2021/07/07 10:55:48;;;;;;;;;;;;;;;23.90;67.50;100834.66;5035489;28;1701;-66
2021/07/07 10:58:25;;;;;;;;;;;;;;;23.94;67.59;100851.38;5032685;28;1512;-58
2021/07/07 11:00:52;;;;;;;;;;;;;;;23.91;67.31;100840.91;5022783;28;1971;-58
2021/07/07 11:03:21;;;;;;;;;;;;;;;23.99;67.85;100849.00;5034818;28;1557;-57
2021/07/07 11:05:48;;;;;;;;;;;;;;;23.96;67.89;100833.16;5034399;28;1604;-65
2021/07/07 11:08:17;;;;;;;;;;;;;;;23.97;67.80;100845.63;5031930;28;1697;-65
2021/07/07 11:10:53;;;;;;;;;;;;;;;23.95;68.60;100831.44;5034865;28;1583;-57
2021/07/07 11:13:20;;;;;;;;;;;;;;;23.95;68.02;100836.84;5030162;28;1498;-65
2021/07/07 11:15:48;;;;;;;;;;;;;;;23.79;68.52;100825.00;5030109;28;1552;-57
2021/07/07 11:18:19;;;;;;;;;;;;;;;23.13;67.12;100841.97;5037150;28;1304;-64
2021/07/07 11:20:55;;;;;;;;;;;;;;;22.48;67.06;100843.19;5028905;28;1906;-66
2021/07/07 11:23:22;;;;;;;;;;;;;;;22.03;66.63;100844.13;5032754;28;1590;-57
2021/07/07 11:25:48;;;;;;;;;;;;;;;21.74;65.91;100818.25;5032728;28;1348;-57
2021/07/07 11:28:17;;;;;;;;;;;;;;;21.59;66.03;100849.41;5031862;28;1284;-57
2021/07/07 11:30:44;;;;;;;;;;;;;;;21.44;66.14;100844.50;5030141;28;1523;-57
2021/07/07 11:33:11;;;;;;;;;;;;;;;21.43;66.03;100848.19;5032049;28;1806;-57
2021/07/07 11:35:38;;;;;;;;;;;;;;;21.43;65.12;100841.97;5032647;28;1484;-66
2021/07/07 11:38:07;;;;;;;;;;;;;;;21.37;65.12;100834.47;5032425;28;1560;-57
2021/07/07 11:40:35;;;;;;;;;;;;;;;21.31;65.45;100835.91;5032174;28;1910;-66
2021/07/07 11:43:03;;;;;;;;;;;;;;;21.27;65.27;100847.97;5031259;28;1598;-65
2021/07/07 11:45:32;;;;;;;;;;;;;;;21.24;65.43;100837.50;5038874;28;1107;-66
2021/07/07 11:48:02;;;;;;;;;;;;;;;21.33;65.95;100842.00;5032937;28;1487;-57
2021/07/07 11:50:29;;;;;;;;;;;;;;;21.46;65.14;100855.13;5032003;28;1520;-66
2021/07/07 11:52:58;;;;;;;;;;;;;;;21.54;65.24;100859.75;5032332;28;1508;-67
2021/07/07 11:55:48;;;;;;;;;;;;;;;21.47;66.07;100855.97;5030268;28;1544;-57
2021/07/07 11:58:20;;;;;;;;;;;;;;;21.48;65.67;100863.03;5031716;28;1583;-66
2021/07/07 12:00:47;;;;;;;;;;;;;;;21.59;66.14;100858.31;5030367;28;1969;-66
2021/07/07 12:03:14;;;;;;;;;;;;;;;21.69;65.88;100868.19;5030262;28;1518;-57
2021/07/07 12:05:48;;;;;;;;;;;;;;;22.03;64.99;100844.97;5033180;28;1472;-67
2021/07/07 12:08:15;;;;;;;;;;;;;;;22.39;64.73;100844.16;5029050;28;1610;-67
2021/07/07 12:10:42;;;;;;;;;;;;;;;22.71;63.40;100840.00;5032451;28;1578;-58
2021/07/07 12:13:23;;;;;;;;;;;;;;;22.89;63.56;100835.41;5030892;28;1560;-66
2021/07/07 12:15:50;;;;;;;;;;;;;;;23.10;63.52;100842.28;5031520;28;1773;-57
2021/07/07 12:18:27;;;;;;;;;;;;;;;23.19;63.49;100849.41;5032979;28;1212;-65
2021/07/07 12:20:54;;;;;;;;;;;;;;;23.31;63.57;100845.41;5033044;28;1907;-65
2021/07/07 12:23:21;;;;;;;;;;;;;;;23.36;63.76;100847.66;5032046;28;1524;-66
2021/07/07 12:25:47;;;;;;;;;;;;;;;23.43;63.67;100837.88;5037733;28;1443;-66
2021/07/07 12:28:14;;;;;;;;;;;;;;;23.47;63.81;100838.41;5036296;28;1365;-67
2021/07/07 12:30:42;;;;;;;;;;;;;;;23.57;63.97;100839.09;5038039;28;1336;-58
2021/07/07 12:33:09;;;;;;;;;;;;;;;23.53;64.26;100827.78;5036739;28;982;-66
2021/07/07 12:35:36;;;;;;;;;;;;;;;23.58;64.04;100840.81;5039956;28;1459;-66
2021/07/07 12:38:03;;;;;;;;;;;;;;;23.62;64.21;100836.78;5033261;28;1531;-58
2021/07/07 12:40:30;;;;;;;;;;;;;;;23.66;64.17;100840.00;5034788;28;1973;-58
2021/07/07 12:43:07;;;;;;;;;;;;;;;23.68;64.07;100846.91;5036069;28;1126;-58
2021/07/07 12:45:34;;;;;;;;;;;;;;;23.66;64.20;100842.69;5038584;28;1390;-67
2021/07/07 12:48:06;;;;;;;;;;;;;;;23.69;64.54;100845.88;5049003;28;1569;-58
2021/07/07 12:50:34;;;;;;;;;;;;;;;23.72;64.67;100845.56;5034451;28;1832;-58